Research Triangle Park, North Carolina
Current Conditions -  °F | °C
As of 12:51 AM on Thursday 29 Jan 2015 (Local Time) from KRDU Reporting Station
Few Clouds Few Clouds  
Wind Chill: 25°   Ceiling: Unl
Heat Index: 25°   Visibility: 10mi
Dew Point: 15°   Wind: 0mph
Humidity: 66%   Direction: NA
Pressure: 30.33"   Gusts: NA
Location:  35.9144°N, 78.8655°W
Report Text: KRDU 290551Z 00000KT 10SM FEW250 M04/M09 A3033 RMK AO2 SLP275 T10391094 10011 21044 52001
Loading
Personal Weather Stations






























Interactive Weather Map New forecast layout! Learn more

10-Day Weather Forecast

Advertisements
Track Severe Weather on mobile